createdAt,value
2022-09-03T00:01:16.758Z,26.75
2022-09-03T00:03:43.139Z,26.90
2022-09-03T00:06:09.488Z,26.84
2022-09-03T00:08:35.850Z,26.91
2022-09-03T00:11:04.338Z,26.74
2022-09-03T00:13:30.689Z,26.74
2022-09-03T00:15:57.083Z,26.71
2022-09-03T00:18:23.646Z,26.70
2022-09-03T00:20:50.089Z,26.86
2022-09-03T00:23:16.444Z,26.81
2022-09-03T00:25:42.790Z,26.76
2022-09-03T00:28:09.149Z,26.77
2022-09-03T00:30:35.499Z,26.67
2022-09-03T00:33:01.850Z,26.63
2022-09-03T00:35:28.197Z,26.76
2022-09-03T00:37:54.547Z,26.58
2022-09-03T00:40:20.899Z,26.65
2022-09-03T00:42:47.266Z,26.66
2022-09-03T00:45:13.623Z,26.79
2022-09-03T00:47:39.975Z,26.73
2022-09-03T00:50:06.330Z,26.67
2022-09-03T00:52:33.722Z,26.58
2022-09-03T00:55:00.219Z,26.68
2022-09-03T00:57:26.578Z,26.67
2022-09-03T00:59:52.927Z,26.60
2022-09-03T01:02:19.332Z,26.37
2022-09-03T01:04:45.767Z,26.50
2022-09-03T01:07:12.123Z,26.42
2022-09-03T01:09:38.488Z,26.37
2022-09-03T01:12:04.829Z,26.28
2022-09-03T01:14:31.177Z,26.34
2022-09-03T01:16:57.525Z,26.42
2022-09-03T01:19:23.882Z,26.33
2022-09-03T01:21:50.234Z,26.39
2022-09-03T01:24:16.590Z,26.47
2022-09-03T01:26:42.945Z,26.40
2022-09-03T01:29:09.299Z,26.33
2022-09-03T01:31:35.644Z,26.23
2022-09-03T01:34:01.993Z,26.16
2022-09-03T01:36:28.345Z,26.16
2022-09-03T01:38:54.696Z,26.14
2022-09-03T01:41:21.052Z,26.12
2022-09-03T01:43:47.414Z,26.15
2022-09-03T01:46:13.817Z,26.03
2022-09-03T01:48:41.682Z,26.04
2022-09-03T01:51:08.035Z,26.05
2022-09-03T01:53:34.391Z,26.26
2022-09-03T01:56:00.741Z,26.07
2022-09-03T01:58:27.092Z,26.14
2022-09-03T02:00:53.453Z,26.25
2022-09-03T02:03:19.799Z,26.22
2022-09-03T02:05:46.159Z,26.15
2022-09-03T02:08:12.527Z,26.04
2022-09-03T02:10:39.324Z,25.99
2022-09-03T02:13:05.671Z,25.89
2022-09-03T02:15:32.074Z,26.06
2022-09-03T02:17:58.441Z,26.03
2022-09-03T02:20:24.810Z,26.13
2022-09-03T02:22:51.146Z,26.09
2022-09-03T02:25:17.497Z,26.03
2022-09-03T02:27:43.845Z,26.02
2022-09-03T02:30:10.200Z,26.00
2022-09-03T02:32:36.563Z,25.99
2022-09-03T02:35:02.921Z,26.06
2022-09-03T02:37:29.278Z,25.91
2022-09-03T02:39:55.673Z,25.88
2022-09-03T02:42:22.075Z,25.87
2022-09-03T02:44:48.438Z,25.94
2022-09-03T02:47:14.777Z,26.03
2022-09-03T02:49:41.138Z,26.01
2022-09-03T02:52:07.482Z,25.97
2022-09-03T02:54:33.822Z,25.94
2022-09-03T02:57:00.172Z,25.96
2022-09-03T02:59:26.517Z,25.97
2022-09-03T03:01:52.920Z,25.92
2022-09-03T03:04:19.286Z,25.79
2022-09-03T03:06:47.592Z,25.76
2022-09-03T03:09:14.270Z,25.78
2022-09-03T03:11:40.618Z,25.72
2022-09-03T03:14:06.974Z,25.73
2022-09-03T03:16:33.376Z,25.69
2022-09-03T03:18:59.756Z,25.73
2022-09-03T03:21:26.119Z,25.93
2022-09-03T03:23:52.475Z,25.90
2022-09-03T03:26:18.833Z,25.80
2022-09-03T03:28:45.182Z,25.79
2022-09-03T03:31:11.651Z,25.69
2022-09-03T03:33:38.106Z,25.78
2022-09-03T03:36:04.458Z,25.82
2022-09-03T03:38:30.816Z,25.70
2022-09-03T03:40:57.163Z,25.71
2022-09-03T03:43:23.531Z,25.76
2022-09-03T03:45:49.910Z,25.76
2022-09-03T03:48:16.298Z,25.75
2022-09-03T03:50:42.653Z,25.79
2022-09-03T03:53:09.003Z,25.81
2022-09-03T03:55:35.432Z,25.78
2022-09-03T03:58:01.789Z,25.76
2022-09-03T04:00:28.147Z,25.68
2022-09-03T04:02:54.531Z,25.74
2022-09-03T04:05:23.240Z,25.68
2022-09-03T04:07:50.422Z,25.64
2022-09-03T04:10:16.776Z,25.61
2022-09-03T04:12:43.124Z,25.65
2022-09-03T04:15:09.468Z,25.63
2022-09-03T04:17:35.826Z,25.72
2022-09-03T04:20:02.178Z,25.69
2022-09-03T04:22:28.524Z,25.72
2022-09-03T04:24:54.875Z,25.65
2022-09-03T04:27:21.246Z,25.77
2022-09-03T04:29:47.691Z,25.61
2022-09-03T04:32:14.040Z,25.68
2022-09-03T04:34:40.413Z,25.62
2022-09-03T04:37:06.778Z,25.76
2022-09-03T04:39:33.177Z,25.71
2022-09-03T04:42:00.182Z,25.80
2022-09-03T04:44:26.612Z,25.68
2022-09-03T04:46:52.958Z,25.62
2022-09-03T04:49:19.324Z,25.68
2022-09-03T04:51:45.675Z,25.59
2022-09-03T04:54:12.027Z,25.72
2022-09-03T04:56:38.371Z,25.68
2022-09-03T04:59:04.713Z,25.60
2022-09-03T05:01:32.286Z,25.57
2022-09-03T05:03:58.736Z,25.75
2022-09-03T05:06:25.095Z,25.68
2022-09-03T05:08:51.462Z,25.71
2022-09-03T05:11:17.887Z,25.75
2022-09-03T05:13:44.230Z,25.67
2022-09-03T05:16:10.614Z,25.57
2022-09-03T05:18:37.016Z,25.62
2022-09-03T05:21:03.374Z,25.63
2022-09-03T05:23:31.452Z,25.68
2022-09-03T05:26:00.691Z,25.55
2022-09-03T05:28:27.034Z,25.52
2022-09-03T05:30:53.381Z,25.57
2022-09-03T05:33:19.733Z,25.55
2022-09-03T05:35:46.077Z,25.51
2022-09-03T05:38:12.422Z,25.56
2022-09-03T05:40:38.871Z,25.52
2022-09-03T05:43:08.430Z,25.60
2022-09-03T05:45:35.064Z,25.70
2022-09-03T05:48:01.438Z,25.52
2022-09-03T05:50:27.785Z,25.56
2022-09-03T05:52:54.136Z,25.84
2022-09-03T05:55:20.524Z,25.69
2022-09-03T05:57:46.870Z,25.70
2022-09-03T06:00:13.222Z,25.68
2022-09-03T06:02:39.695Z,25.70
2022-09-03T06:05:06.161Z,25.73
2022-09-03T06:07:32.510Z,25.79
2022-09-03T06:09:58.860Z,25.69
2022-09-03T06:12:25.222Z,25.82
2022-09-03T06:14:51.588Z,25.76
2022-09-03T06:17:17.929Z,25.85
2022-09-03T06:19:44.277Z,25.81
2022-09-03T06:22:10.647Z,25.72
2022-09-03T06:24:36.993Z,25.85
2022-09-03T06:27:03.351Z,25.81
2022-09-03T06:29:29.700Z,25.81
2022-09-03T06:31:56.125Z,25.80
2022-09-03T06:34:23.362Z,25.83
2022-09-03T06:36:49.716Z,25.93
2022-09-03T06:39:16.057Z,26.28
2022-09-03T06:41:42.403Z,26.36
2022-09-03T06:44:08.811Z,26.41
2022-09-03T06:46:35.210Z,26.31
2022-09-03T06:49:01.574Z,26.38
2022-09-03T06:51:27.927Z,26.61
2022-09-03T06:53:54.286Z,26.57
2022-09-03T06:56:20.644Z,26.57
2022-09-03T06:58:46.997Z,26.66
2022-09-03T07:01:13.497Z,26.76
2022-09-03T07:03:39.972Z,26.80
2022-09-03T07:06:06.340Z,26.89
2022-09-03T07:08:32.691Z,26.89
2022-09-03T07:10:59.052Z,26.91
2022-09-03T07:13:25.393Z,26.88
2022-09-03T07:15:51.786Z,26.83
2022-09-03T07:18:18.168Z,26.91
2022-09-03T07:20:44.523Z,26.90
2022-09-03T07:23:10.879Z,26.84
2022-09-03T07:25:37.255Z,26.88
2022-09-03T07:28:03.619Z,26.97
2022-09-03T07:30:29.975Z,27.06
2022-09-03T07:32:56.345Z,27.05
2022-09-03T07:35:22.703Z,27.04
2022-09-03T07:37:49.050Z,27.12
2022-09-03T07:40:15.399Z,27.19
2022-09-03T07:42:41.753Z,27.24
2022-09-03T07:45:08.114Z,27.24
2022-09-03T07:47:34.473Z,27.20
2022-09-03T07:50:00.826Z,27.34
2022-09-03T07:52:27.191Z,27.23
2022-09-03T07:54:53.546Z,27.29
2022-09-03T07:57:19.894Z,26.73
2022-09-03T07:59:46.247Z,26.31
2022-09-03T08:02:12.605Z,26.16
2022-09-03T08:04:38.949Z,26.16
2022-09-03T08:07:05.304Z,25.88
2022-09-03T08:09:31.679Z,25.88
2022-09-03T08:11:58.035Z,25.89
2022-09-03T08:14:24.396Z,25.87
2022-09-03T08:16:50.765Z,25.72
2022-09-03T08:19:17.130Z,25.85
2022-09-03T08:21:43.503Z,25.69
2022-09-03T08:24:09.850Z,25.75
2022-09-03T08:26:36.215Z,25.77
2022-09-03T08:29:02.610Z,25.88
2022-09-03T08:31:29.015Z,25.63
2022-09-03T08:33:55.418Z,25.80
2022-09-03T08:36:21.781Z,25.83
2022-09-03T08:38:48.317Z,25.55
2022-09-03T08:41:14.671Z,25.64
2022-09-03T08:43:41.024Z,25.61
2022-09-03T08:46:07.413Z,25.65
2022-09-03T08:48:33.804Z,25.76
2022-09-03T08:51:00.188Z,25.77
2022-09-03T08:53:26.572Z,25.75
2022-09-03T08:55:52.926Z,25.77
2022-09-03T08:58:19.359Z,25.87
2022-09-03T09:00:45.751Z,25.87
2022-09-03T09:03:12.097Z,25.71
2022-09-03T09:05:38.446Z,25.58
2022-09-03T09:08:04.943Z,25.46
2022-09-03T09:10:31.301Z,25.54
2022-09-03T09:12:57.655Z,25.63
2022-09-03T09:15:24.007Z,25.49
2022-09-03T09:17:50.378Z,25.66
2022-09-03T09:20:16.729Z,25.89
2022-09-03T09:22:43.077Z,25.99
2022-09-03T09:25:13.601Z,25.88
2022-09-03T09:27:39.955Z,25.97
2022-09-03T09:30:06.313Z,26.20
2022-09-03T09:32:32.679Z,26.15
2022-09-03T09:34:59.038Z,26.20
2022-09-03T09:37:25.421Z,26.17
2022-09-03T09:39:51.843Z,26.25
2022-09-03T09:42:18.250Z,26.36
2022-09-03T09:44:44.598Z,26.44
2022-09-03T09:47:10.950Z,26.45
2022-09-03T09:49:37.289Z,26.44
2022-09-03T09:52:03.639Z,26.38
2022-09-03T09:54:30.001Z,26.42
2022-09-03T09:56:56.345Z,26.45
2022-09-03T09:59:22.698Z,26.42
2022-09-03T10:01:49.114Z,26.65
2022-09-03T10:04:15.540Z,26.72
2022-09-03T10:06:41.902Z,26.78
2022-09-03T10:09:08.320Z,26.75
2022-09-03T10:11:34.721Z,26.84
2022-09-03T10:14:01.126Z,26.79
2022-09-03T10:16:27.557Z,26.87
2022-09-03T10:18:53.907Z,26.93
2022-09-03T10:21:20.532Z,27.11
2022-09-03T10:23:46.884Z,27.05
2022-09-03T10:26:13.292Z,26.97
2022-09-03T10:28:39.648Z,27.09
2022-09-03T10:31:06.042Z,27.00
2022-09-03T10:33:32.447Z,27.17
2022-09-03T10:35:58.842Z,27.02
2022-09-03T10:38:25.389Z,26.79
2022-09-03T10:40:51.860Z,26.80
2022-09-03T10:43:19.757Z,26.89
2022-09-03T10:45:46.123Z,27.03
2022-09-03T10:48:12.475Z,27.16
2022-09-03T10:50:38.917Z,26.94
2022-09-03T10:53:05.395Z,27.14
2022-09-03T10:55:31.737Z,27.24
2022-09-03T10:57:58.088Z,27.24
2022-09-03T11:00:24.450Z,27.38
2022-09-03T11:02:50.854Z,27.31
2022-09-03T11:05:17.249Z,27.19
2022-09-03T11:07:43.607Z,27.37
2022-09-03T11:10:09.957Z,27.35
2022-09-03T11:12:36.330Z,27.29
2022-09-03T11:15:02.684Z,27.02
2022-09-03T11:17:29.047Z,27.17
2022-09-03T11:19:58.551Z,27.00
2022-09-03T11:22:24.909Z,26.82
2022-09-03T11:24:51.268Z,26.93
2022-09-03T11:27:17.620Z,26.89
2022-09-03T11:29:43.971Z,26.99
2022-09-03T11:32:10.338Z,27.14
2022-09-03T11:34:36.692Z,26.98
2022-09-03T11:37:03.136Z,27.06
2022-09-03T11:39:29.506Z,27.03
2022-09-03T11:41:55.914Z,26.97
2022-09-03T11:44:22.272Z,26.97
2022-09-03T11:46:48.624Z,27.01
2022-09-03T11:49:14.977Z,26.95
2022-09-03T11:51:41.336Z,26.92
2022-09-03T11:54:07.688Z,26.90
2022-09-03T11:56:35.995Z,26.99
2022-09-03T11:59:02.339Z,27.03
2022-09-03T12:01:28.689Z,26.94
2022-09-03T12:03:55.044Z,26.99
2022-09-03T12:06:21.402Z,27.03
2022-09-03T12:08:47.775Z,26.99
2022-09-03T12:11:14.120Z,27.07
2022-09-03T12:13:40.486Z,26.97
2022-09-03T12:16:06.876Z,26.90
2022-09-03T12:18:33.262Z,27.06
2022-09-03T12:20:59.639Z,27.19
2022-09-03T12:23:25.978Z,27.14
2022-09-03T12:25:52.341Z,27.15
2022-09-03T12:28:18.706Z,27.11
2022-09-03T12:30:45.098Z,27.02
2022-09-03T12:33:11.493Z,26.96
2022-09-03T12:38:24.228Z,27.18
2022-09-03T12:43:37.989Z,27.35
2022-09-03T12:46:12.480Z,27.50
2022-09-03T12:48:43.552Z,27.45
2022-09-03T12:53:56.855Z,27.65
2022-09-03T12:56:23.207Z,27.87
2022-09-03T12:58:49.549Z,27.99
2022-09-03T13:01:15.946Z,27.96
2022-09-03T13:03:42.356Z,27.94
2022-09-03T13:06:08.713Z,27.93
2022-09-03T13:08:35.067Z,27.93
2022-09-03T13:11:01.418Z,27.90
2022-09-03T13:13:27.763Z,27.83
2022-09-03T13:15:54.115Z,27.88
2022-09-03T13:18:20.483Z,27.94
2022-09-03T13:20:46.831Z,27.93
2022-09-03T13:23:13.218Z,27.93
2022-09-03T13:25:39.581Z,27.89
2022-09-03T13:28:05.925Z,27.95
2022-09-03T13:30:32.349Z,28.03
2022-09-03T13:32:59.485Z,28.02
2022-09-03T13:35:25.943Z,28.10
2022-09-03T13:37:52.291Z,27.97
2022-09-03T13:40:18.643Z,27.83
2022-09-03T13:42:44.994Z,27.92
2022-09-03T13:45:11.347Z,27.97
2022-09-03T13:47:37.699Z,28.07
2022-09-03T13:50:04.051Z,28.09
2022-09-03T13:52:30.409Z,28.07
2022-09-03T13:54:56.806Z,28.17
2022-09-03T13:57:23.159Z,28.19
2022-09-03T13:59:49.592Z,28.13
2022-09-03T14:02:16.021Z,28.16
2022-09-03T14:04:42.455Z,28.26
2022-09-03T14:07:08.817Z,28.26
2022-09-03T14:09:35.165Z,28.23
2022-09-03T14:12:01.523Z,28.14
2022-09-03T14:14:27.883Z,28.09
2022-09-03T14:16:54.287Z,28.09
2022-09-03T14:19:20.650Z,28.08
2022-09-03T14:21:47.024Z,28.16
2022-09-03T14:24:13.386Z,28.15
2022-09-03T14:26:40.162Z,28.15
2022-09-03T14:29:06.586Z,28.15
2022-09-03T14:31:32.979Z,28.21
2022-09-03T14:33:59.383Z,28.21
2022-09-03T14:36:25.737Z,28.31
2022-09-03T14:38:52.087Z,28.19
2022-09-03T14:41:18.434Z,28.27
2022-09-03T14:43:44.791Z,28.21
2022-09-03T14:46:11.214Z,28.33
2022-09-03T14:48:37.582Z,28.33
2022-09-03T14:51:03.931Z,28.32
2022-09-03T14:53:30.283Z,28.27
2022-09-03T14:55:56.661Z,28.35
2022-09-03T14:58:23.022Z,28.32
2022-09-03T15:00:49.423Z,28.40
2022-09-03T15:03:15.898Z,28.32
2022-09-03T15:05:42.341Z,28.42
2022-09-03T15:08:08.704Z,28.31
2022-09-03T15:10:35.054Z,28.38
2022-09-03T15:13:01.413Z,28.21
2022-09-03T15:15:27.776Z,28.28
2022-09-03T15:17:54.164Z,28.31
2022-09-03T15:20:20.525Z,28.36
2022-09-03T15:22:49.896Z,28.20
2022-09-03T15:25:16.582Z,28.23
2022-09-03T15:27:42.937Z,28.20
2022-09-03T15:30:09.287Z,28.25
2022-09-03T15:32:35.651Z,28.29
2022-09-03T15:35:01.999Z,28.14
2022-09-03T15:37:28.356Z,28.22
2022-09-03T15:39:54.817Z,28.21
2022-09-03T15:42:21.199Z,28.28
2022-09-03T15:44:47.556Z,28.23
2022-09-03T15:47:14.586Z,27.75
2022-09-03T15:49:41.065Z,27.59
2022-09-03T15:52:07.420Z,27.35
2022-09-03T15:54:33.785Z,27.37
2022-09-03T15:57:00.142Z,27.40
2022-09-03T15:59:26.513Z,27.27
2022-09-03T16:01:52.862Z,27.58
2022-09-03T16:04:19.230Z,27.37
2022-09-03T16:06:45.579Z,27.53
2022-09-03T16:09:11.931Z,27.48
2022-09-03T16:11:38.303Z,27.49
2022-09-03T16:14:04.668Z,27.50
2022-09-03T16:16:31.114Z,27.42
2022-09-03T16:18:57.540Z,27.51
2022-09-03T16:21:23.913Z,27.62
2022-09-03T16:23:50.271Z,27.62
2022-09-03T16:26:16.617Z,27.55
2022-09-03T16:28:42.979Z,27.34
2022-09-03T16:31:09.422Z,27.57
2022-09-03T16:33:35.794Z,27.37
2022-09-03T16:36:02.162Z,27.50
2022-09-03T16:38:28.530Z,27.87
2022-09-03T16:40:54.884Z,27.72
2022-09-03T16:43:39.317Z,27.88
2022-09-03T16:46:07.305Z,27.85
2022-09-03T16:48:33.700Z,27.78
2022-09-03T16:51:00.062Z,27.83
2022-09-03T16:53:26.526Z,27.86
2022-09-03T16:55:52.979Z,27.68
2022-09-03T16:58:19.347Z,27.49
2022-09-03T17:00:45.808Z,27.29
2022-09-03T17:03:12.326Z,27.18
2022-09-03T17:05:38.677Z,27.28
2022-09-03T17:08:06.913Z,27.21
2022-09-03T17:10:33.249Z,27.28
2022-09-03T17:12:59.607Z,27.31
2022-09-03T17:15:25.950Z,27.22
2022-09-03T17:17:52.304Z,27.43
2022-09-03T17:20:18.655Z,27.30
2022-09-03T17:22:45.023Z,27.42
2022-09-03T17:25:11.380Z,27.39
2022-09-03T17:27:37.743Z,27.54
2022-09-03T17:30:04.097Z,27.61
2022-09-03T17:32:30.456Z,27.51
2022-09-03T17:34:56.820Z,27.50
2022-09-03T17:37:23.167Z,27.53
2022-09-03T17:39:49.558Z,27.24
2022-09-03T17:42:16.040Z,27.18
2022-09-03T17:44:46.740Z,27.12
2022-09-03T17:47:13.109Z,27.20
2022-09-03T17:49:39.464Z,27.43
2022-09-03T17:52:05.813Z,27.53
2022-09-03T17:54:32.183Z,27.13
2022-09-03T17:56:58.626Z,26.90
2022-09-03T17:59:24.965Z,26.59
2022-09-03T18:01:51.375Z,26.36
2022-09-03T18:04:19.515Z,26.70
2022-09-03T18:06:45.915Z,26.66
2022-09-03T18:09:12.282Z,26.55
2022-09-03T18:11:38.679Z,26.72
2022-09-03T18:14:05.040Z,26.99
2022-09-03T18:16:31.455Z,27.16
2022-09-03T18:18:57.870Z,27.06
2022-09-03T18:21:29.046Z,27.00
2022-09-03T18:23:57.750Z,27.05
2022-09-03T18:26:24.096Z,26.83
2022-09-03T18:28:50.450Z,26.75
2022-09-03T18:31:16.853Z,26.69
2022-09-03T18:33:43.274Z,26.79
2022-09-03T18:36:10.700Z,26.70
2022-09-03T18:38:37.064Z,26.74
2022-09-03T18:41:03.416Z,26.74
2022-09-03T18:43:29.778Z,26.76
2022-09-03T18:46:45.963Z,26.76
2022-09-03T18:48:42.549Z,26.80
2022-09-03T18:51:08.963Z,26.79
2022-09-03T18:53:35.354Z,26.72
2022-09-03T18:56:01.713Z,26.73
2022-09-03T18:58:28.063Z,26.82
2022-09-03T19:00:54.421Z,26.75
2022-09-03T19:03:20.792Z,26.78
2022-09-03T19:05:47.149Z,26.79
2022-09-03T19:08:13.498Z,26.78
2022-09-03T19:10:39.845Z,26.73
2022-09-03T19:13:06.196Z,26.82
2022-09-03T19:15:33.630Z,26.83
2022-09-03T19:18:00.100Z,26.78
2022-09-03T19:20:26.453Z,26.83
2022-09-03T19:22:52.810Z,26.81
2022-09-03T19:25:19.159Z,26.83
2022-09-03T19:27:56.911Z,26.79
2022-09-03T19:30:25.856Z,26.83
2022-09-03T19:32:52.228Z,26.83
2022-09-03T19:35:18.583Z,26.78
2022-09-03T19:37:44.950Z,26.81
2022-09-03T19:40:11.302Z,26.82
2022-09-03T19:42:37.650Z,26.82
2022-09-03T19:45:04.949Z,26.79
2022-09-03T19:47:31.312Z,26.76
2022-09-03T19:49:57.663Z,26.79
2022-09-03T19:52:24.007Z,26.81
2022-09-03T19:54:50.368Z,26.80
2022-09-03T19:57:16.728Z,26.79
2022-09-03T19:59:43.077Z,26.78
2022-09-03T20:02:09.430Z,26.77
2022-09-03T20:04:35.787Z,26.75
2022-09-03T20:07:02.151Z,26.75
2022-09-03T20:09:28.498Z,26.76
2022-09-03T20:11:54.865Z,26.73
2022-09-03T20:14:21.216Z,26.77
2022-09-03T20:16:47.571Z,26.77
2022-09-03T20:19:13.932Z,26.80
2022-09-03T20:21:40.295Z,26.77
2022-09-03T20:24:06.751Z,26.86
2022-09-03T20:26:33.110Z,26.82
2022-09-03T20:28:59.464Z,26.79
2022-09-03T20:31:25.875Z,26.77
2022-09-03T20:33:52.300Z,26.75
2022-09-03T20:36:18.650Z,26.77
2022-09-03T20:38:45.005Z,26.76
2022-09-03T20:41:11.359Z,26.76
2022-09-03T20:43:37.719Z,26.75
2022-09-03T20:46:04.134Z,26.81
2022-09-03T20:48:30.507Z,26.82
2022-09-03T20:50:56.842Z,26.77
2022-09-03T20:53:23.201Z,26.79
2022-09-03T20:55:49.554Z,26.73
2022-09-03T20:58:15.906Z,26.72
2022-09-03T21:00:42.262Z,26.74
2022-09-03T21:03:08.645Z,26.77
2022-09-03T21:05:34.990Z,26.76
2022-09-03T21:08:01.389Z,26.78
2022-09-03T21:10:27.735Z,26.78
2022-09-03T21:12:54.082Z,26.81
2022-09-03T21:15:20.446Z,26.79
2022-09-03T21:17:46.798Z,26.75
2022-09-03T21:20:13.154Z,26.71
2022-09-03T21:22:39.524Z,26.72
2022-09-03T21:25:05.959Z,26.76
2022-09-03T21:27:32.310Z,26.77
2022-09-03T21:29:58.675Z,26.77
2022-09-03T21:32:27.437Z,26.76
2022-09-03T21:34:53.799Z,26.89
2022-09-03T21:37:20.155Z,26.51
2022-09-03T21:39:46.599Z,26.37
2022-09-03T21:42:13.039Z,26.61
2022-09-03T21:44:39.398Z,26.50
2022-09-03T21:47:05.747Z,26.51
2022-09-03T21:49:32.109Z,26.56
2022-09-03T21:51:58.469Z,26.52
2022-09-03T21:54:24.830Z,26.55
2022-09-03T21:56:51.190Z,26.62
2022-09-03T21:59:17.561Z,26.66
2022-09-03T22:01:43.962Z,26.70
2022-09-03T22:04:10.333Z,26.66
2022-09-03T22:06:36.702Z,26.75
2022-09-03T22:09:03.121Z,26.70
2022-09-03T22:11:29.512Z,26.73
2022-09-03T22:13:55.963Z,26.77
2022-09-03T22:16:22.388Z,26.73
2022-09-03T22:18:48.774Z,26.80
2022-09-03T22:21:15.127Z,26.79
2022-09-03T22:23:41.489Z,26.82
2022-09-03T22:26:07.832Z,26.78
2022-09-03T22:28:34.182Z,26.83
2022-09-03T22:31:00.601Z,26.74
2022-09-03T22:33:26.995Z,26.79
2022-09-03T22:35:53.355Z,26.79
2022-09-03T22:38:19.747Z,26.73
2022-09-03T22:40:46.156Z,26.78
2022-09-03T22:43:18.714Z,26.77
2022-09-03T22:45:45.137Z,26.66
2022-09-03T22:48:11.531Z,26.71
2022-09-03T22:50:37.894Z,26.73
2022-09-03T22:53:04.251Z,26.78
2022-09-03T22:55:30.602Z,26.72
2022-09-03T22:57:56.944Z,26.77
2022-09-03T23:00:23.301Z,26.81
2022-09-03T23:02:49.669Z,26.83
2022-09-03T23:05:16.855Z,26.79
2022-09-03T23:07:43.211Z,26.77
2022-09-03T23:10:09.570Z,26.71
2022-09-03T23:12:35.932Z,26.76
2022-09-03T23:15:02.285Z,26.75
2022-09-03T23:19:53.879Z,26.74
2022-09-03T23:22:20.239Z,26.74
2022-09-03T23:24:46.589Z,26.72
2022-09-03T23:27:12.945Z,26.77
2022-09-03T23:29:39.302Z,26.71
2022-09-03T23:32:05.689Z,26.68
2022-09-03T23:34:32.077Z,26.75
2022-09-03T23:37:22.526Z,26.73
2022-09-03T23:39:44.795Z,26.71
2022-09-03T23:42:11.177Z,26.77
2022-09-03T23:44:37.547Z,26.73
2022-09-03T23:47:03.903Z,26.76
2022-09-03T23:49:30.248Z,26.76
2022-09-03T23:51:56.607Z,26.81
2022-09-03T23:54:22.963Z,26.74
2022-09-03T23:56:49.317Z,26.83
2022-09-03T23:59:15.670Z,26.81
